Iowa City, IA

6:56 AM CST on February 13, 2016 (GMT -0600)
Park West | | Change Station
CLOSE
Current Station
Personal Weather Station
Location: Iowa City, IA
Elevation: 709 ft
Nearby Weather Stations
Active Advisory: Winter Weather Advisory

Elev 709 ft 41.64 °N, 91.57 °W | Updated 3 minutes ago

Clear
Clear
3.7 °F
Feels Like 4 °F
N
0.0
Wind Variable Wind from NE
Gusts 0.0 mph

Today
High -- | Low -- °F
--% Chance of Precip.
Yesterday
High -- | Low -- °F
Precip. -- in
Pressure 30.72 in
Visibility 10.0 miles
Clouds Clear
Windchill 4 °F
Dew Point -14 °F
Humidity 42%
Rainfall 0.00 in
Snow Depth Not available.
7:04 AM 5:36 PM
Waxing Crescent, 30% visible
METAR KIOW 131252Z AUTO VRB03KT 10SM CLR M16/M22 A3067 RMK AO2 SLP401 T11561222
Pressure 30.72 in
Visibility 10.0 miles
Clouds Clear
Windchill 4 °F
Dew Point -14 °F
Humidity 42%
Rainfall 0.00 in
Snow Depth Not available.
7:04 AM 5:36 PM
Waxing Crescent, 30% visible
METAR KIOW 131252Z AUTO VRB03KT 10SM CLR M16/M22 A3067 RMK AO2 SLP401 T11561222

10-Day Weather Forecast

Almanac

Astronomy

Feb. 13, 2016 Rise Set
Actual Time
Civil Twilight
Nautical Twilight
Astronomical Twilight
Moon
Length of Visible Light
Length of Day
Tomorrow will be .
, % of the Moon is Illuminated

Today's Extremes

State Highs State Lows

Community

WunderPhotos

Upload Photos

1,892,543 photos uploaded!

WunderBlog® & News

Nearby

Air Quality

  Air Quality AQ Index Pollutant
Not available.

Snow Depth

Station Depth Elevation

Earthquake Activity

City Distance Mag. Time & Date
Minimum magnitude displayed is 2.5.

Coastal Water Temperatures

Place Temperature

Stations

Nearby Weather Stations

Station Location Temp. Windchill Dew Point Humidity Wind Precip. Elev Updated Type
                   

Watches & Warnings

Winter Weather Advisory
Issued: 3:38 AM CST Feb. 13, 2016 – National Weather Service

... Winter Weather Advisory in effect from 9 PM this evening to
6 PM CST Sunday...

The National Weather Service in Quad Cities has issued a Winter
Weather Advisory for snow... which is in effect from 9 PM this
evening to 6 PM CST Sunday.

* Timing... late this evening through the day on Sunday.

* Snow accumulations... 3 to 5 inches.

* Wind... southeast winds increasing to gusts over 25 mph later
tonight into Sunday morning.

* Temperatures... in the single digits and teens tonight and in the
20s on Sunday.

* Visibilities... less than a mile in heavier snow at times.

* Impacts... snow covered and hazardous roads and low visibility
in heavier snowfall.

Precautionary/preparedness actions...



Haase